ilmateenistus.ee keskkonnaagentuur.ee
EETN Tallinn
FTEO31 EETN 171700
TAF EETN 171705Z 1718/1818 15007KT 9999 SCT040 PROB40 TEMPO 1808/1812
    SCT030CB=

METAR EETN 172250Z 14007KT CAVOK 17/12 Q1013 =
Tallinn
EEKA Kärdla
METAR EEKA 172250Z NIL=
Kärdla
EEKE Kuressaare
SPECI EEKE 172314Z AUTO 17002KT 2100NDV R17/P2000N R35/P2000N BR FEW003 13/12 Q1012=
Kuressaare
EEPU Pärnu
METAR EEPU 172250Z NIL=
Pärnu
EETU Tartu
METAR EETU 172250Z AUTO 12004KT 9999 NCD 12/10 Q1015=
Tartu
EEEI Ämari
METAR EEEI 172250Z AUTO 12005KT CAVOK 16/13 Q1013=
Ämari